createdAt,value
2023-02-08T00:01:56.800Z,0.60
2023-02-08T00:05:57.771Z,0.30
2023-02-08T00:09:59.110Z,-0.10
2023-02-08T00:14:00.246Z,0.60
2023-02-08T00:18:01.502Z,0.20
2023-02-08T00:22:02.511Z,0.10
2023-02-08T00:26:04.518Z,0.40
2023-02-08T00:30:06.575Z,0.30
2023-02-08T00:34:07.546Z,0.30
2023-02-08T00:38:08.793Z,0.20
2023-02-08T00:42:10.214Z,-0.50
2023-02-08T00:46:11.209Z,-0.80
2023-02-08T00:50:12.321Z,-0.10
2023-02-08T00:54:17.283Z,-0.10
2023-02-08T00:58:18.434Z,0.10
2023-02-08T01:02:19.674Z,-0.20
2023-02-08T01:06:20.796Z,-0.80
2023-02-08T01:10:21.881Z,-0.40
2023-02-08T01:14:23.067Z,0.10
2023-02-08T01:18:24.207Z,-0.40
2023-02-08T01:22:25.389Z,0.00
2023-02-08T01:26:26.705Z,-0.10
2023-02-08T01:30:27.908Z,-0.60
2023-02-08T01:34:29.118Z,0.10
2023-02-08T01:38:31.007Z,0.00
2023-02-08T01:42:32.082Z,0.10
2023-02-08T01:46:35.574Z,-0.20
2023-02-08T01:50:43.180Z,-0.50
2023-02-08T01:54:51.018Z,-0.30
2023-02-08T01:58:55.993Z,0.00
2023-02-08T02:02:59.289Z,-0.20
2023-02-08T02:07:02.960Z,-0.20
2023-02-08T02:11:04.360Z,-0.10
2023-02-08T02:15:06.070Z,-0.40
2023-02-08T02:19:11.034Z,-0.30
2023-02-08T02:23:31.189Z,-0.50
2023-02-08T02:27:35.972Z,-0.60
2023-02-08T02:31:59.477Z,-0.30
2023-02-08T02:36:28.643Z,-0.80
2023-02-08T02:40:49.895Z,-1.10
2023-02-08T02:45:03.735Z,-0.50
2023-02-08T02:49:17.261Z,-0.50
2023-02-08T02:53:41.651Z,-0.60
2023-02-08T02:57:45.677Z,-0.80
2023-02-08T03:01:47.415Z,-1.20
2023-02-08T03:05:50.876Z,-0.90
2023-02-08T03:10:20.129Z,-1.00
2023-02-08T03:14:48.446Z,-1.10
2023-02-08T03:19:11.440Z,-1.00
2023-02-08T03:23:32.626Z,-1.20
2023-02-08T03:27:52.432Z,-0.90
2023-02-08T03:31:57.514Z,-0.60
2023-02-08T03:36:08.326Z,-0.80
2023-02-08T03:40:13.127Z,-0.30
2023-02-08T03:44:18.091Z,-0.50
2023-02-08T03:48:21.229Z,-0.70
2023-02-08T03:52:24.206Z,-0.60
2023-02-08T03:56:44.146Z,-0.90
2023-02-08T04:00:49.133Z,-1.20
2023-02-08T04:04:52.229Z,-0.90
2023-02-08T04:08:53.230Z,-1.10
2023-02-08T04:12:54.207Z,-1.00
2023-02-08T04:16:55.543Z,-1.40
2023-02-08T04:20:59.902Z,-1.00
2023-02-08T04:25:00.866Z,-1.10
2023-02-08T04:29:01.969Z,-1.40
2023-02-08T04:33:03.319Z,-1.00
2023-02-08T04:37:05.118Z,-0.90
2023-02-08T04:41:06.081Z,-1.00
2023-02-08T04:45:08.055Z,-1.40
2023-02-08T04:49:09.104Z,-1.30
2023-02-08T04:53:10.918Z,-1.30
2023-02-08T04:57:13.530Z,-1.20
2023-02-08T05:01:15.812Z,-1.70
2023-02-08T05:05:16.965Z,-1.30
2023-02-08T05:09:17.984Z,-1.30
2023-02-08T05:13:18.982Z,-1.70
2023-02-08T05:17:20.182Z,-1.60
2023-02-08T05:21:23.116Z,-1.00
2023-02-08T05:25:24.139Z,-1.30
2023-02-08T05:29:25.559Z,-1.30
2023-02-08T05:33:26.683Z,-1.40
2023-02-08T05:37:27.639Z,-1.60
2023-02-08T05:41:28.779Z,-1.30
2023-02-08T05:45:30.088Z,-1.30
2023-02-08T05:49:31.132Z,-1.40
2023-02-08T05:53:32.183Z,-1.00
2023-02-08T05:57:35.643Z,-1.10
2023-02-08T06:01:37.121Z,-1.70
2023-02-08T06:05:39.446Z,-1.60
2023-02-08T06:09:40.660Z,-1.30
2023-02-08T06:13:41.745Z,-1.50
2023-02-08T06:17:42.858Z,-1.60
2023-02-08T06:21:43.976Z,-1.40
2023-02-08T06:25:45.088Z,-1.50
2023-02-08T06:29:46.217Z,-1.40
2023-02-08T06:33:47.216Z,-1.80
2023-02-08T06:37:48.436Z,-1.50
2023-02-08T06:41:49.394Z,-1.50
2023-02-08T06:45:50.546Z,-1.50
2023-02-08T06:49:52.594Z,-1.50
2023-02-08T06:53:53.705Z,-1.50
2023-02-08T06:57:55.586Z,-2.00
2023-02-08T07:01:59.564Z,-1.90
2023-02-08T07:06:05.437Z,-1.30
2023-02-08T07:10:03.980Z,-1.20
2023-02-08T07:14:04.959Z,-1.40
2023-02-08T07:18:05.913Z,-1.10
2023-02-08T07:22:07.696Z,-1.10
2023-02-08T07:26:11.475Z,-1.00
2023-02-08T07:30:13.167Z,-1.00
2023-02-08T07:34:16.101Z,-0.80
2023-02-08T07:38:20.554Z,-0.60
2023-02-08T07:42:21.097Z,-0.90
2023-02-08T07:46:22.564Z,-0.30
2023-02-08T07:50:23.596Z,0.10
2023-02-08T07:54:24.917Z,0.60
2023-02-08T07:58:26.680Z,0.70
2023-02-08T08:02:27.651Z,0.40
2023-02-08T08:06:28.978Z,1.10
2023-02-08T08:10:30.636Z,1.30
2023-02-08T08:14:31.956Z,1.50
2023-02-08T08:18:33.360Z,1.70
2023-02-08T08:22:34.389Z,1.30
2023-02-08T08:26:35.350Z,1.40
2023-02-08T08:30:36.496Z,1.80
2023-02-08T08:34:37.545Z,2.00
2023-02-08T08:38:39.535Z,2.00
2023-02-08T08:42:40.585Z,2.20
2023-02-08T08:46:41.759Z,2.50
2023-02-08T08:50:43.103Z,2.60
2023-02-08T08:54:44.351Z,2.80
2023-02-08T08:58:45.472Z,3.10
2023-02-08T09:02:46.404Z,3.10
2023-02-08T09:06:49.594Z,2.80
2023-02-08T09:10:50.550Z,3.40
2023-02-08T09:14:51.642Z,3.90
2023-02-08T09:18:52.615Z,3.70
2023-02-08T09:22:53.836Z,3.90
2023-02-08T09:26:55.275Z,3.90
2023-02-08T09:30:57.111Z,3.70
2023-02-08T09:34:58.021Z,4.50
2023-02-08T09:39:09.473Z,4.10
2023-02-08T09:43:14.200Z,3.90
2023-02-08T09:47:21.884Z,4.80
2023-02-08T09:51:32.195Z,5.00
2023-02-08T09:55:37.208Z,5.40
2023-02-08T09:59:40.101Z,4.60
2023-02-08T10:03:44.997Z,4.90
2023-02-08T10:07:46.538Z,4.60
2023-02-08T10:11:58.398Z,5.50
2023-02-08T10:16:08.911Z,3.80
2023-02-08T10:20:31.195Z,4.40
2023-02-08T10:24:44.917Z,3.90
2023-02-08T10:29:06.494Z,4.30
2023-02-08T10:33:20.136Z,5.10
2023-02-08T10:37:35.844Z,4.30
2023-02-08T10:41:39.274Z,5.50
2023-02-08T10:45:46.961Z,4.10
2023-02-08T10:50:08.349Z,6.00
2023-02-08T10:54:12.327Z,5.40
2023-02-08T10:58:23.298Z,4.40
2023-02-08T11:02:28.290Z,3.80
2023-02-08T11:06:29.357Z,4.20
2023-02-08T11:10:30.883Z,3.70
2023-02-08T11:14:46.067Z,3.40
2023-02-08T11:18:48.035Z,3.80
2023-02-08T11:22:49.108Z,3.20
2023-02-08T11:26:50.815Z,3.50
2023-02-08T11:30:56.569Z,3.10
2023-02-08T11:35:03.465Z,4.00
2023-02-08T11:39:17.164Z,5.80
2023-02-08T11:43:24.390Z,4.50
2023-02-08T11:47:28.859Z,5.60
2023-02-08T11:51:34.121Z,6.40
2023-02-08T11:55:35.329Z,5.90
2023-02-08T11:59:36.466Z,5.30
2023-02-08T12:03:39.938Z,6.20
2023-02-08T12:08:01.223Z,6.00
2023-02-08T12:12:12.982Z,4.80
2023-02-08T12:16:20.913Z,5.20
2023-02-08T12:20:25.655Z,5.10
2023-02-08T12:24:36.532Z,7.30
2023-02-08T12:29:02.328Z,6.60
2023-02-08T12:33:07.131Z,5.70
2023-02-08T12:37:36.337Z,4.90
2023-02-08T12:42:01.048Z,5.00
2023-02-08T12:46:08.787Z,5.00
2023-02-08T12:50:30.952Z,5.40
2023-02-08T12:54:35.732Z,6.10
2023-02-08T12:58:46.374Z,6.50
2023-02-08T13:03:13.723Z,6.60
2023-02-08T13:07:21.570Z,6.10
2023-02-08T13:11:41.317Z,6.20
2023-02-08T13:15:55.146Z,6.20
2023-02-08T13:20:18.309Z,5.70
2023-02-08T13:24:23.152Z,5.70
2023-02-08T13:28:25.740Z,6.70
2023-02-08T13:36:40.613Z,6.50
2023-02-08T13:40:42.687Z,8.00
2023-02-08T13:44:47.778Z,6.70
2023-02-08T13:48:52.339Z,7.20
2023-02-08T13:52:53.860Z,7.20
2023-02-08T13:56:55.322Z,7.10
2023-02-08T14:01:00.950Z,7.00
2023-02-08T14:05:40.814Z,5.40
2023-02-08T14:10:14.551Z,6.00
2023-02-08T14:14:28.313Z,7.00
2023-02-08T14:18:30.128Z,5.80
2023-02-08T14:22:35.016Z,6.60
2023-02-08T14:26:36.915Z,6.30
2023-02-08T14:30:39.313Z,6.50
2023-02-08T14:34:40.931Z,5.50
2023-02-08T14:38:48.958Z,6.80
2023-02-08T14:43:16.781Z,7.00
2023-02-08T14:47:27.654Z,5.10
2023-02-08T14:51:32.666Z,6.10
2023-02-08T14:55:43.559Z,6.50
2023-02-08T14:59:45.639Z,7.80
2023-02-08T15:03:50.568Z,5.90
2023-02-08T15:07:54.692Z,6.20
2023-02-08T15:12:06.407Z,6.50
2023-02-08T15:16:10.766Z,7.10
2023-02-08T15:20:21.414Z,5.80
2023-02-08T15:24:26.433Z,6.50
2023-02-08T15:28:30.086Z,4.30
2023-02-08T15:32:31.519Z,4.20
2023-02-08T15:36:36.284Z,4.20
2023-02-08T15:40:37.493Z,4.20
2023-02-08T15:44:41.957Z,4.50
2023-02-08T15:48:45.449Z,4.90
2023-02-08T15:52:48.058Z,4.40
2023-02-08T15:57:04.802Z,4.50
2023-02-08T16:01:08.919Z,4.50
2023-02-08T16:05:19.985Z,4.20
2023-02-08T16:09:27.767Z,4.50
2023-02-08T16:13:35.139Z,4.60
2023-02-08T16:17:45.174Z,5.00
2023-02-08T16:21:46.320Z,5.20
2023-02-08T16:25:49.409Z,4.90
2023-02-08T16:29:51.096Z,4.70
2023-02-08T16:34:01.052Z,5.10
2023-02-08T16:38:05.525Z,5.70
2023-02-08T16:42:22.605Z,6.10
2023-02-08T16:46:25.295Z,5.80
2023-02-08T16:50:27.607Z,5.00
2023-02-08T16:54:29.082Z,5.30
2023-02-08T16:58:30.135Z,5.50
2023-02-08T17:02:31.292Z,4.70
2023-02-08T17:06:35.007Z,5.00
2023-02-08T17:10:37.284Z,4.90
2023-02-08T17:14:38.704Z,4.50
2023-02-08T17:18:40.153Z,4.50
2023-02-08T17:22:41.143Z,4.50
2023-02-08T17:26:43.300Z,4.10
2023-02-08T17:30:45.819Z,3.90
2023-02-08T17:34:46.799Z,3.90
2023-02-08T17:38:48.167Z,3.80
2023-02-08T17:42:51.695Z,3.30
2023-02-08T17:46:52.827Z,3.60
2023-02-08T17:50:53.922Z,3.50
2023-02-08T17:54:54.901Z,3.50
2023-02-08T17:58:56.031Z,3.40
2023-02-08T18:02:59.049Z,3.30
2023-02-08T18:06:59.767Z,3.20
2023-02-08T18:11:05.571Z,3.20
2023-02-08T18:15:09.571Z,3.10
2023-02-08T18:19:10.861Z,3.00
2023-02-08T18:23:12.618Z,2.80
2023-02-08T18:27:14.184Z,1.60
2023-02-08T18:31:19.157Z,1.90
2023-02-08T18:35:20.461Z,2.50
2023-02-08T18:39:22.605Z,2.40
2023-02-08T18:43:24.928Z,2.70
2023-02-08T18:47:26.006Z,3.10
2023-02-08T18:51:27.647Z,2.80
2023-02-08T18:55:28.617Z,2.30
2023-02-08T18:59:30.057Z,2.60
2023-02-08T19:03:31.554Z,2.80
2023-02-08T19:07:34.337Z,3.10
2023-02-08T19:11:37.469Z,3.00
2023-02-08T19:15:39.983Z,3.70
2023-02-08T19:19:41.457Z,4.10
2023-02-08T19:23:44.717Z,3.90
2023-02-08T19:27:50.936Z,3.30
2023-02-08T19:31:52.072Z,2.90
2023-02-08T19:35:53.118Z,3.00
2023-02-08T19:39:54.069Z,2.30
2023-02-08T19:43:55.238Z,2.40
2023-02-08T19:47:56.692Z,1.90
2023-02-08T19:51:57.684Z,1.70
2023-02-08T19:56:04.319Z,2.00
2023-02-08T20:00:11.290Z,2.20
2023-02-08T20:04:08.950Z,1.90
2023-02-08T20:08:10.795Z,1.50
2023-02-08T20:12:11.891Z,1.50
2023-02-08T20:16:13.256Z,2.20
2023-02-08T20:20:14.551Z,2.00
2023-02-08T20:24:16.015Z,2.30
2023-02-08T20:28:17.272Z,2.40
2023-02-08T20:32:18.877Z,2.80
2023-02-08T20:36:22.706Z,3.00
2023-02-08T20:40:23.789Z,1.90
2023-02-08T20:44:24.781Z,1.40
2023-02-08T20:48:25.869Z,1.60
2023-02-08T20:52:27.780Z,1.70
2023-02-08T20:56:34.247Z,1.70
2023-02-08T21:00:42.210Z,1.60
2023-02-08T21:04:38.284Z,2.30
2023-02-08T21:08:39.694Z,3.10
2023-02-08T21:12:40.939Z,3.60
2023-02-08T21:16:42.003Z,3.30
2023-02-08T21:20:43.638Z,3.50
2023-02-08T21:24:44.906Z,3.00
2023-02-08T21:28:46.548Z,2.80
2023-02-08T21:32:48.208Z,2.50
2023-02-08T21:36:49.275Z,3.00
2023-02-08T21:40:50.278Z,2.80
2023-02-08T21:44:51.438Z,2.70
2023-02-08T21:49:11.073Z,2.50
2023-02-08T21:53:33.045Z,2.30
2023-02-08T21:57:37.252Z,2.40
2023-02-08T22:01:38.410Z,1.40
2023-02-08T22:05:57.984Z,1.10
2023-02-08T22:09:59.169Z,0.70
2023-02-08T22:14:00.580Z,1.60
2023-02-08T22:18:02.789Z,1.50
2023-02-08T22:22:04.086Z,1.80
2023-02-08T22:26:09.057Z,1.40
2023-02-08T22:30:13.456Z,1.60
2023-02-08T22:34:14.496Z,1.50
2023-02-08T22:38:15.617Z,1.50
2023-02-08T22:42:16.744Z,1.60
2023-02-08T22:46:17.885Z,1.30
2023-02-08T22:50:19.292Z,1.80
2023-02-08T22:54:20.296Z,1.40
2023-02-08T22:58:21.841Z,0.90
2023-02-08T23:02:23.934Z,1.70
2023-02-08T23:06:24.964Z,1.80
2023-02-08T23:10:26.086Z,1.00
2023-02-08T23:14:27.158Z,1.50
2023-02-08T23:18:28.288Z,1.20
2023-02-08T23:22:29.363Z,1.30
2023-02-08T23:26:30.390Z,1.20
2023-02-08T23:30:31.469Z,1.10
2023-02-08T23:34:34.146Z,1.70
2023-02-08T23:38:35.529Z,0.90
2023-02-08T23:42:36.661Z,0.50
2023-02-08T23:46:38.417Z,1.00
2023-02-08T23:50:39.429Z,1.90
2023-02-08T23:54:41.097Z,1.30
2023-02-08T23:58:44.141Z,2.00
